sensor_id;sensor_type;location;lat;lon;timestamp;pressure;altitude;pressure_sealevel;temperature;humidity
14117;BME280;7137;51.436;6.544;2023-06-22T00:02:58;101426.66;;;21.70;74.15
14117;BME280;7137;51.436;6.544;2023-06-22T00:06:01;101424.72;;;21.72;74.10
14117;BME280;7137;51.436;6.544;2023-06-22T00:09:02;101427.59;;;21.81;73.88
14117;BME280;7137;51.436;6.544;2023-06-22T00:12:05;101427.53;;;21.83;73.50
14117;BME280;7137;51.436;6.544;2023-06-22T00:15:07;101425.06;;;21.80;73.55
14117;BME280;7137;51.436;6.544;2023-06-22T00:18:10;101431.44;;;21.77;74.22
14117;BME280;7137;51.436;6.544;2023-06-22T00:21:13;101421.50;;;21.67;74.40
14117;BME280;7137;51.436;6.544;2023-06-22T00:24:14;101433.25;;;21.77;74.29
14117;BME280;7137;51.436;6.544;2023-06-22T00:27:16;101425.13;;;21.66;74.23
14117;BME280;7137;51.436;6.544;2023-06-22T00:30:18;101420.75;;;21.64;75.01
14117;BME280;7137;51.436;6.544;2023-06-22T00:33:20;101417.25;;;21.64;74.81
14117;BME280;7137;51.436;6.544;2023-06-22T00:36:23;101420.00;;;21.62;74.61
14117;BME280;7137;51.436;6.544;2023-06-22T00:39:25;101420.13;;;21.61;74.97
14117;BME280;7137;51.436;6.544;2023-06-22T00:42:26;101424.69;;;21.59;75.11
14117;BME280;7137;51.436;6.544;2023-06-22T00:45:28;101415.66;;;21.61;75.17
14117;BME280;7137;51.436;6.544;2023-06-22T00:48:29;101414.91;;;21.59;75.14
14117;BME280;7137;51.436;6.544;2023-06-22T00:51:32;101415.81;;;21.46;76.09
14117;BME280;7137;51.436;6.544;2023-06-22T00:54:38;101409.13;;;21.53;75.96
14117;BME280;7137;51.436;6.544;2023-06-22T00:57:39;101404.66;;;21.41;76.56
14117;BME280;7137;51.436;6.544;2023-06-22T01:00:42;101411.66;;;21.42;76.96
14117;BME280;7137;51.436;6.544;2023-06-22T01:03:43;101403.59;;;21.43;76.45
14117;BME280;7137;51.436;6.544;2023-06-22T01:06:56;101401.63;;;21.32;77.16
14117;BME280;7137;51.436;6.544;2023-06-22T01:10:06;101403.88;;;21.39;76.80
14117;BME280;7137;51.436;6.544;2023-06-22T01:13:16;101396.50;;;21.29;77.30
14117;BME280;7137;51.436;6.544;2023-06-22T01:16:23;101392.16;;;21.14;77.93
14117;BME280;7137;51.436;6.544;2023-06-22T01:19:35;101390.25;;;21.16;77.83
14117;BME280;7137;51.436;6.544;2023-06-22T01:22:48;101381.72;;;21.11;77.84
14117;BME280;7137;51.436;6.544;2023-06-22T01:25:59;101386.28;;;21.09;78.15
14117;BME280;7137;51.436;6.544;2023-06-22T01:29:05;101381.28;;;21.04;78.64
14117;BME280;7137;51.436;6.544;2023-06-22T01:32:09;101391.59;;;21.09;78.88
14117;BME280;7137;51.436;6.544;2023-06-22T01:35:12;101395.19;;;21.08;79.18
14117;BME280;7137;51.436;6.544;2023-06-22T01:38:13;101397.16;;;21.19;79.11
14117;BME280;7137;51.436;6.544;2023-06-22T01:41:16;101394.16;;;21.11;78.72
14117;BME280;7137;51.436;6.544;2023-06-22T01:44:20;101386.69;;;21.03;78.86
14117;BME280;7137;51.436;6.544;2023-06-22T01:47:23;101390.09;;;21.05;79.61
14117;BME280;7137;51.436;6.544;2023-06-22T01:50:26;101384.47;;;21.10;79.13
14117;BME280;7137;51.436;6.544;2023-06-22T01:53:27;101373.31;;;21.04;78.91
14117;BME280;7137;51.436;6.544;2023-06-22T01:56:29;101373.22;;;20.92;80.50
14117;BME280;7137;51.436;6.544;2023-06-22T01:59:37;101379.28;;;20.94;79.52
14117;BME280;7137;51.436;6.544;2023-06-22T02:02:44;101379.81;;;20.86;79.67
14117;BME280;7137;51.436;6.544;2023-06-22T02:05:53;101371.25;;;20.81;81.15
14117;BME280;7137;51.436;6.544;2023-06-22T02:08:59;101367.75;;;20.81;80.14
14117;BME280;7137;51.436;6.544;2023-06-22T02:12:04;101371.47;;;20.78;80.43
14117;BME280;7137;51.436;6.544;2023-06-22T02:15:09;101375.91;;;20.78;81.57
14117;BME280;7137;51.436;6.544;2023-06-22T02:18:11;101381.41;;;20.89;80.50
14117;BME280;7137;51.436;6.544;2023-06-22T02:21:13;101379.06;;;20.84;81.26
14117;BME280;7137;51.436;6.544;2023-06-22T02:24:15;101371.13;;;20.97;80.44
14117;BME280;7137;51.436;6.544;2023-06-22T02:27:17;101368.03;;;20.90;80.44
14117;BME280;7137;51.436;6.544;2023-06-22T02:30:20;101368.31;;;20.86;81.92
14117;BME280;7137;51.436;6.544;2023-06-22T02:33:21;101371.34;;;20.80;82.37
14117;BME280;7137;51.436;6.544;2023-06-22T02:36:23;101364.06;;;20.83;80.73
14117;BME280;7137;51.436;6.544;2023-06-22T02:39:27;101366.34;;;20.75;81.16
14117;BME280;7137;51.436;6.544;2023-06-22T02:42:28;101361.88;;;20.75;82.01
14117;BME280;7137;51.436;6.544;2023-06-22T02:45:31;101367.00;;;20.79;81.67
14117;BME280;7137;51.436;6.544;2023-06-22T02:48:33;101370.47;;;20.93;80.52
14117;BME280;7137;51.436;6.544;2023-06-22T02:51:34;101373.44;;;20.89;81.88
14117;BME280;7137;51.436;6.544;2023-06-22T02:54:36;101366.31;;;20.89;80.92
14117;BME280;7137;51.436;6.544;2023-06-22T02:57:38;101363.13;;;20.84;82.06
14117;BME280;7137;51.436;6.544;2023-06-22T03:00:45;101356.56;;;20.75;81.68
14117;BME280;7137;51.436;6.544;2023-06-22T03:03:46;101358.06;;;20.80;83.05
14117;BME280;7137;51.436;6.544;2023-06-22T03:06:48;101349.88;;;20.70;82.41
14117;BME280;7137;51.436;6.544;2023-06-22T03:09:51;101346.72;;;20.63;83.23
14117;BME280;7137;51.436;6.544;2023-06-22T03:12:52;101343.22;;;20.63;83.60
14117;BME280;7137;51.436;6.544;2023-06-22T03:15:55;101337.53;;;20.55;82.71
14117;BME280;7137;51.436;6.544;2023-06-22T03:18:57;101340.16;;;20.69;83.29
14117;BME280;7137;51.436;6.544;2023-06-22T03:22:00;101337.47;;;20.56;83.09
14117;BME280;7137;51.436;6.544;2023-06-22T03:25:02;101340.13;;;20.56;83.21
14117;BME280;7137;51.436;6.544;2023-06-22T03:28:04;101336.88;;;20.51;83.98
14117;BME280;7137;51.436;6.544;2023-06-22T03:31:08;101337.50;;;20.40;84.76
14117;BME280;7137;51.436;6.544;2023-06-22T03:34:09;101326.44;;;20.34;83.81
14117;BME280;7137;51.436;6.544;2023-06-22T03:37:11;101315.06;;;20.32;84.00
14117;BME280;7137;51.436;6.544;2023-06-22T03:40:12;101314.88;;;20.35;84.75
14117;BME280;7137;51.436;6.544;2023-06-22T03:43:14;101309.56;;;20.35;84.28
14117;BME280;7137;51.436;6.544;2023-06-22T03:46:17;101313.06;;;20.35;84.51
14117;BME280;7137;51.436;6.544;2023-06-22T03:49:20;101305.41;;;20.31;85.58
14117;BME280;7137;51.436;6.544;2023-06-22T03:52:21;101301.41;;;20.24;86.14
14117;BME280;7137;51.436;6.544;2023-06-22T03:55:23;101304.94;;;20.10;85.82
14117;BME280;7137;51.436;6.544;2023-06-22T03:58:24;101303.63;;;20.17;86.26
14117;BME280;7137;51.436;6.544;2023-06-22T04:01:27;101305.31;;;20.18;86.52
14117;BME280;7137;51.436;6.544;2023-06-22T04:04:29;101310.53;;;20.20;86.19
14117;BME280;7137;51.436;6.544;2023-06-22T04:07:30;101313.28;;;20.32;85.34
14117;BME280;7137;51.436;6.544;2023-06-22T04:10:33;101309.22;;;20.55;84.86
14117;BME280;7137;51.436;6.544;2023-06-22T04:13:34;101315.41;;;20.68;83.36
14117;BME280;7137;51.436;6.544;2023-06-22T04:16:37;101305.38;;;20.73;84.59
14117;BME280;7137;51.436;6.544;2023-06-22T04:19:39;101301.78;;;21.01;82.56
14117;BME280;7137;51.436;6.544;2023-06-22T04:22:41;101310.59;;;21.02;83.16
14117;BME280;7137;51.436;6.544;2023-06-22T04:25:43;101322.16;;;21.01;83.03
14117;BME280;7137;51.436;6.544;2023-06-22T04:28:44;101323.34;;;20.83;82.90
14117;BME280;7137;51.436;6.544;2023-06-22T04:31:53;101318.34;;;20.78;84.12
14117;BME280;7137;51.436;6.544;2023-06-22T04:34:56;101308.56;;;20.79;84.42
14117;BME280;7137;51.436;6.544;2023-06-22T04:37:58;101308.97;;;20.72;85.43
14117;BME280;7137;51.436;6.544;2023-06-22T04:41:00;101299.84;;;20.77;84.87
14117;BME280;7137;51.436;6.544;2023-06-22T04:44:03;101299.41;;;20.70;84.65
14117;BME280;7137;51.436;6.544;2023-06-22T04:47:07;101295.59;;;20.74;85.00
14117;BME280;7137;51.436;6.544;2023-06-22T04:50:09;101296.59;;;20.59;85.85
14117;BME280;7137;51.436;6.544;2023-06-22T04:53:10;101294.38;;;20.65;85.50
14117;BME280;7137;51.436;6.544;2023-06-22T04:56:12;101304.41;;;20.74;84.70
14117;BME280;7137;51.436;6.544;2023-06-22T04:59:16;101311.59;;;20.87;84.01
14117;BME280;7137;51.436;6.544;2023-06-22T05:02:20;101307.19;;;20.73;84.59
14117;BME280;7137;51.436;6.544;2023-06-22T05:05:23;101306.31;;;20.72;85.49
14117;BME280;7137;51.436;6.544;2023-06-22T05:08:24;101304.41;;;20.74;84.85
14117;BME280;7137;51.436;6.544;2023-06-22T05:11:27;101299.06;;;20.89;84.19
14117;BME280;7137;51.436;6.544;2023-06-22T05:14:29;101308.88;;;21.01;84.07
14117;BME280;7137;51.436;6.544;2023-06-22T05:17:32;101308.88;;;21.01;83.42
14117;BME280;7137;51.436;6.544;2023-06-22T05:20:33;101307.84;;;21.03;83.22
14117;BME280;7137;51.436;6.544;2023-06-22T05:23:36;101309.47;;;20.92;84.28
14117;BME280;7137;51.436;6.544;2023-06-22T05:26:37;101307.38;;;20.97;84.38
14117;BME280;7137;51.436;6.544;2023-06-22T05:29:39;101304.53;;;21.00;83.90
14117;BME280;7137;51.436;6.544;2023-06-22T05:32:42;101304.22;;;21.04;83.84
14117;BME280;7137;51.436;6.544;2023-06-22T05:35:44;101307.47;;;20.95;84.14
14117;BME280;7137;51.436;6.544;2023-06-22T05:38:46;101312.84;;;21.08;83.67
14117;BME280;7137;51.436;6.544;2023-06-22T05:41:47;101324.75;;;21.29;82.38
14117;BME280;7137;51.436;6.544;2023-06-22T05:44:49;101325.81;;;21.27;82.89
14117;BME280;7137;51.436;6.544;2023-06-22T05:47:52;101328.47;;;21.27;82.98
14117;BME280;7137;51.436;6.544;2023-06-22T05:50:54;101325.00;;;21.12;84.53
14117;BME280;7137;51.436;6.544;2023-06-22T05:53:55;101334.19;;;21.07;86.64
14117;BME280;7137;51.436;6.544;2023-06-22T05:56:57;101333.00;;;20.98;87.20
14117;BME280;7137;51.436;6.544;2023-06-22T05:59:58;101328.47;;;20.86;88.65
14117;BME280;7137;51.436;6.544;2023-06-22T06:03:01;101327.81;;;20.82;90.40
14117;BME280;7137;51.436;6.544;2023-06-22T06:06:04;101333.53;;;20.76;91.84
14117;BME280;7137;51.436;6.544;2023-06-22T06:09:06;101338.13;;;20.60;91.79
14117;BME280;7137;51.436;6.544;2023-06-22T06:12:08;101333.25;;;20.38;95.49
14117;BME280;7137;51.436;6.544;2023-06-22T06:15:10;101329.50;;;20.13;98.92
14117;BME280;7137;51.436;6.544;2023-06-22T06:18:13;101319.34;;;20.06;100.00
14117;BME280;7137;51.436;6.544;2023-06-22T06:21:15;101319.13;;;20.09;100.00
14117;BME280;7137;51.436;6.544;2023-06-22T06:24:16;101320.19;;;20.21;99.65
14117;BME280;7137;51.436;6.544;2023-06-22T06:27:18;101325.69;;;20.32;97.92
14117;BME280;7137;51.436;6.544;2023-06-22T06:30:19;101320.75;;;20.54;97.29
14117;BME280;7137;51.436;6.544;2023-06-22T06:33:23;101321.50;;;20.70;95.13
14117;BME280;7137;51.436;6.544;2023-06-22T06:36:26;101320.44;;;20.73;96.33
14117;BME280;7137;51.436;6.544;2023-06-22T06:39:28;101317.59;;;20.76;96.03
14117;BME280;7137;51.436;6.544;2023-06-22T06:42:29;101318.75;;;20.72;96.94
14117;BME280;7137;51.436;6.544;2023-06-22T06:45:31;101304.41;;;20.74;97.09
14117;BME280;7137;51.436;6.544;2023-06-22T06:48:36;101314.16;;;20.88;95.93
14117;BME280;7137;51.436;6.544;2023-06-22T06:51:37;101312.34;;;21.16;94.35
14117;BME280;7137;51.436;6.544;2023-06-22T06:54:39;101301.47;;;21.33;91.02
14117;BME280;7137;51.436;6.544;2023-06-22T06:57:42;101306.19;;;21.55;91.23
14117;BME280;7137;51.436;6.544;2023-06-22T07:00:44;101298.53;;;21.63;89.32
14117;BME280;7137;51.436;6.544;2023-06-22T07:03:46;101300.56;;;21.72;88.41
14117;BME280;7137;51.436;6.544;2023-06-22T07:06:48;101290.91;;;21.84;87.94
14117;BME280;7137;51.436;6.544;2023-06-22T07:09:50;101277.69;;;21.95;84.89
14117;BME280;7137;51.436;6.544;2023-06-22T07:12:51;101290.47;;;22.28;82.50
14117;BME280;7137;51.436;6.544;2023-06-22T07:15:53;101279.59;;;22.31;82.07
14117;BME280;7137;51.436;6.544;2023-06-22T07:18:55;101283.59;;;22.37;81.45
14117;BME280;7137;51.436;6.544;2023-06-22T07:21:57;101281.59;;;22.40;82.42
14117;BME280;7137;51.436;6.544;2023-06-22T07:24:59;101272.63;;;22.54;83.17
14117;BME280;7137;51.436;6.544;2023-06-22T07:28:03;101271.16;;;22.74;81.72
14117;BME280;7137;51.436;6.544;2023-06-22T07:31:05;101276.75;;;22.58;81.28
14117;BME280;7137;51.436;6.544;2023-06-22T07:34:08;101274.13;;;22.45;80.67
14117;BME280;7137;51.436;6.544;2023-06-22T07:37:10;101285.31;;;22.74;80.01
14117;BME280;7137;51.436;6.544;2023-06-22T07:40:12;101288.41;;;23.05;77.98
14117;BME280;7137;51.436;6.544;2023-06-22T07:43:14;101289.09;;;22.96;78.38
14117;BME280;7137;51.436;6.544;2023-06-22T07:46:15;101284.88;;;23.04;77.21
14117;BME280;7137;51.436;6.544;2023-06-22T07:49:18;101282.56;;;23.24;77.11
14117;BME280;7137;51.436;6.544;2023-06-22T07:52:20;101273.31;;;23.17;77.31
14117;BME280;7137;51.436;6.544;2023-06-22T07:55:21;101268.59;;;22.85;77.50
14117;BME280;7137;51.436;6.544;2023-06-22T07:58:23;101277.88;;;23.03;77.89
14117;BME280;7137;51.436;6.544;2023-06-22T08:01:24;101259.31;;;23.02;78.40
14117;BME280;7137;51.436;6.544;2023-06-22T08:04:30;101251.44;;;23.00;77.72
14117;BME280;7137;51.436;6.544;2023-06-22T08:07:34;101243.50;;;22.88;78.31
14117;BME280;7137;51.436;6.544;2023-06-22T08:10:37;101242.06;;;22.71;79.42
14117;BME280;7137;51.436;6.544;2023-06-22T08:13:39;101222.06;;;22.41;80.57
14117;BME280;7137;51.436;6.544;2023-06-22T08:16:41;101204.78;;;22.47;80.26
14117;BME280;7137;51.436;6.544;2023-06-22T08:19:44;101202.22;;;22.45;82.17
14117;BME280;7137;51.436;6.544;2023-06-22T08:22:46;101192.41;;;22.46;80.08
14117;BME280;7137;51.436;6.544;2023-06-22T08:25:47;101191.38;;;22.36;82.38
14117;BME280;7137;51.436;6.544;2023-06-22T08:28:50;101194.91;;;22.36;81.71
14117;BME280;7137;51.436;6.544;2023-06-22T08:31:52;101200.69;;;22.30;83.87
14117;BME280;7137;51.436;6.544;2023-06-22T08:34:56;101197.44;;;22.14;83.50
14117;BME280;7137;51.436;6.544;2023-06-22T08:37:58;101199.22;;;22.26;82.98
14117;BME280;7137;51.436;6.544;2023-06-22T08:41:02;101190.78;;;22.32;83.20
14117;BME280;7137;51.436;6.544;2023-06-22T08:44:04;101189.22;;;22.17;85.66
14117;BME280;7137;51.436;6.544;2023-06-22T08:47:05;101187.84;;;22.24;85.30
14117;BME280;7137;51.436;6.544;2023-06-22T08:50:10;101187.34;;;22.06;85.45
14117;BME280;7137;51.436;6.544;2023-06-22T08:53:11;101185.09;;;22.00;85.11
14117;BME280;7137;51.436;6.544;2023-06-22T08:56:13;101190.88;;;22.31;84.41
14117;BME280;7137;51.436;6.544;2023-06-22T08:59:14;101184.63;;;22.19;84.11
14117;BME280;7137;51.436;6.544;2023-06-22T09:02:16;101184.13;;;22.14;84.40
14117;BME280;7137;51.436;6.544;2023-06-22T09:05:19;101183.94;;;21.91;85.39
14117;BME280;7137;51.436;6.544;2023-06-22T09:08:22;101194.34;;;21.94;85.82
14117;BME280;7137;51.436;6.544;2023-06-22T09:11:24;101191.03;;;22.04;85.77
14117;BME280;7137;51.436;6.544;2023-06-22T09:14:25;101186.25;;;22.09;84.53
14117;BME280;7137;51.436;6.544;2023-06-22T09:17:28;101179.19;;;22.20;84.87
14117;BME280;7137;51.436;6.544;2023-06-22T09:20:31;101178.44;;;22.31;83.91
14117;BME280;7137;51.436;6.544;2023-06-22T09:23:32;101167.31;;;22.61;82.59
14117;BME280;7137;51.436;6.544;2023-06-22T09:26:34;101177.91;;;22.98;80.27
14117;BME280;7137;51.436;6.544;2023-06-22T09:29:35;101174.81;;;23.26;79.29
14117;BME280;7137;51.436;6.544;2023-06-22T09:32:37;101177.63;;;24.14;77.51
14117;BME280;7137;51.436;6.544;2023-06-22T09:35:40;101177.34;;;24.28;75.66
14117;BME280;7137;51.436;6.544;2023-06-22T09:38:41;101176.94;;;24.01;76.10
14117;BME280;7137;51.436;6.544;2023-06-22T09:41:43;101178.66;;;23.68;77.36
14117;BME280;7137;51.436;6.544;2023-06-22T09:44:44;101171.38;;;23.82;77.80
14117;BME280;7137;51.436;6.544;2023-06-22T09:47:46;101174.13;;;24.03;75.69
14117;BME280;7137;51.436;6.544;2023-06-22T09:50:49;101182.69;;;25.04;72.99
14117;BME280;7137;51.436;6.544;2023-06-22T09:53:51;101186.38;;;25.54;70.66
14117;BME280;7137;51.436;6.544;2023-06-22T09:56:54;101177.56;;;25.63;69.31
14117;BME280;7137;51.436;6.544;2023-06-22T09:59:55;101185.59;;;25.94;67.85
14117;BME280;7137;51.436;6.544;2023-06-22T10:02:57;101164.81;;;26.26;66.07
14117;BME280;7137;51.436;6.544;2023-06-22T10:06:00;101159.63;;;26.73;65.16
14117;BME280;7137;51.436;6.544;2023-06-22T10:09:01;101153.03;;;26.68;65.88
14117;BME280;7137;51.436;6.544;2023-06-22T10:12:04;101150.69;;;26.15;66.15
14117;BME280;7137;51.436;6.544;2023-06-22T10:15:06;101161.41;;;26.05;68.42
14117;BME280;7137;51.436;6.544;2023-06-22T10:18:08;101155.88;;;25.97;66.87
14117;BME280;7137;51.436;6.544;2023-06-22T10:21:11;101148.44;;;25.70;67.99
14117;BME280;7137;51.436;6.544;2023-06-22T10:24:13;101133.94;;;25.11;68.44
14117;BME280;7137;51.436;6.544;2023-06-22T10:27:15;101137.66;;;25.20;69.19
14117;BME280;7137;51.436;6.544;2023-06-22T10:30:17;101126.50;;;26.45;64.87
14117;BME280;7137;51.436;6.544;2023-06-22T10:33:18;101147.69;;;26.48;64.50
14117;BME280;7137;51.436;6.544;2023-06-22T10:36:22;101140.69;;;26.07;66.01
14117;BME280;7137;51.436;6.544;2023-06-22T10:39:24;101144.28;;;25.77;67.06
14117;BME280;7137;51.436;6.544;2023-06-22T10:42:25;101150.69;;;25.13;69.43
14117;BME280;7137;51.436;6.544;2023-06-22T10:45:27;101162.03;;;25.88;67.53
14117;BME280;7137;51.436;6.544;2023-06-22T10:48:29;101177.00;;;25.90;67.04
14117;BME280;7137;51.436;6.544;2023-06-22T10:51:32;101177.38;;;25.55;69.02
14117;BME280;7137;51.436;6.544;2023-06-22T10:54:34;101177.03;;;25.39;69.72
14117;BME280;7137;51.436;6.544;2023-06-22T10:57:37;101177.63;;;25.01;70.78
14117;BME280;7137;51.436;6.544;2023-06-22T11:00:39;101178.13;;;24.95;71.11
14117;BME280;7137;51.436;6.544;2023-06-22T11:03:41;101174.09;;;24.68;72.42
14117;BME280;7137;51.436;6.544;2023-06-22T11:06:43;101166.59;;;24.62;73.41
14117;BME280;7137;51.436;6.544;2023-06-22T11:09:45;101156.47;;;24.34;76.30
14117;BME280;7137;51.436;6.544;2023-06-22T11:12:47;101146.13;;;24.51;76.13
14117;BME280;7137;51.436;6.544;2023-06-22T11:15:48;101144.66;;;24.47;76.11
14117;BME280;7137;51.436;6.544;2023-06-22T11:18:50;101147.44;;;24.57;76.79
14117;BME280;7137;51.436;6.544;2023-06-22T11:21:53;101145.03;;;24.75;75.96
14117;BME280;7137;51.436;6.544;2023-06-22T11:24:54;101157.31;;;24.45;76.65
14117;BME280;7137;51.436;6.544;2023-06-22T11:27:56;101160.22;;;24.42;81.34
14117;BME280;7137;51.436;6.544;2023-06-22T11:30:57;101160.84;;;24.35;80.43
14117;BME280;7137;51.436;6.544;2023-06-22T11:33:59;101164.53;;;24.22;83.77
14117;BME280;7137;51.436;6.544;2023-06-22T11:37:02;101166.59;;;24.30;86.29
14117;BME280;7137;51.436;6.544;2023-06-22T11:40:05;101163.91;;;24.30;87.96
14117;BME280;7137;51.436;6.544;2023-06-22T11:43:09;101140.94;;;23.73;95.24
14117;BME280;7137;51.436;6.544;2023-06-22T11:46:10;101122.69;;;23.11;100.00
14117;BME280;7137;51.436;6.544;2023-06-22T11:49:12;101095.25;;;22.51;100.00
14117;BME280;7137;51.436;6.544;2023-06-22T11:52:15;101098.50;;;22.20;100.00
14117;BME280;7137;51.436;6.544;2023-06-22T11:55:18;101099.69;;;22.16;100.00
14117;BME280;7137;51.436;6.544;2023-06-22T11:58:19;101079.19;;;22.05;100.00
14117;BME280;7137;51.436;6.544;2023-06-22T12:01:21;101060.81;;;21.89;100.00
14117;BME280;7137;51.436;6.544;2023-06-22T12:04:22;101052.09;;;21.87;100.00
14117;BME280;7137;51.436;6.544;2023-06-22T12:07:26;101056.00;;;21.94;100.00
14117;BME280;7137;51.436;6.544;2023-06-22T12:10:28;101056.41;;;22.01;100.00
14117;BME280;7137;51.436;6.544;2023-06-22T12:13:29;101057.13;;;22.03;100.00
14117;BME280;7137;51.436;6.544;2023-06-22T12:16:31;101045.25;;;22.20;100.00
14117;BME280;7137;51.436;6.544;2023-06-22T12:19:33;101040.16;;;22.41;100.00
14117;BME280;7137;51.436;6.544;2023-06-22T12:22:36;101048.59;;;22.70;100.00
14117;BME280;7137;51.436;6.544;2023-06-22T12:25:38;101041.13;;;23.20;100.00
14117;BME280;7137;51.436;6.544;2023-06-22T12:28:40;101022.94;;;23.36;100.00
14117;BME280;7137;51.436;6.544;2023-06-22T12:31:41;101011.94;;;23.40;100.00
14117;BME280;7137;51.436;6.544;2023-06-22T12:34:44;100997.09;;;23.48;100.00
14117;BME280;7137;51.436;6.544;2023-06-22T12:37:46;100992.88;;;23.67;100.00
14117;BME280;7137;51.436;6.544;2023-06-22T12:40:48;100988.34;;;23.79;100.00
14117;BME280;7137;51.436;6.544;2023-06-22T12:43:50;100995.31;;;24.23;100.00
14117;BME280;7137;51.436;6.544;2023-06-22T12:46:51;101009.59;;;24.54;97.91
14117;BME280;7137;51.436;6.544;2023-06-22T12:49:53;101017.56;;;24.66;96.04
14117;BME280;7137;51.436;6.544;2023-06-22T12:52:56;101000.28;;;24.70;94.00
14117;BME280;7137;51.436;6.544;2023-06-22T12:55:58;101000.63;;;24.86;94.33
14117;BME280;7137;51.436;6.544;2023-06-22T12:58:59;100998.09;;;24.84;93.21
14117;BME280;7137;51.436;6.544;2023-06-22T13:02:02;100997.81;;;25.08;88.52
14117;BME280;7137;51.436;6.544;2023-06-22T13:05:04;100983.13;;;24.72;91.53
14117;BME280;7137;51.436;6.544;2023-06-22T13:08:07;100992.34;;;24.89;89.68
14117;BME280;7137;51.436;6.544;2023-06-22T13:11:09;100984.31;;;24.79;89.84
14117;BME280;7137;51.436;6.544;2023-06-22T13:14:10;100983.81;;;24.95;90.70
14117;BME280;7137;51.436;6.544;2023-06-22T13:17:12;100973.69;;;24.99;89.66
14117;BME280;7137;51.436;6.544;2023-06-22T13:20:14;100985.22;;;24.99;88.81
14117;BME280;7137;51.436;6.544;2023-06-22T13:23:17;100995.16;;;24.87;86.32
14117;BME280;7137;51.436;6.544;2023-06-22T13:26:19;100982.47;;;24.59;89.41
14117;BME280;7137;51.436;6.544;2023-06-22T13:29:20;100963.13;;;24.25;92.08
14117;BME280;7137;51.436;6.544;2023-06-22T13:32:22;100967.38;;;24.27;95.31
14117;BME280;7137;51.436;6.544;2023-06-22T13:35:23;100957.63;;;23.85;95.79
14117;BME280;7137;51.436;6.544;2023-06-22T13:38:26;100942.31;;;23.55;97.95
14117;BME280;7137;51.436;6.544;2023-06-22T13:41:28;100925.03;;;23.27;98.93
14117;BME280;7137;51.436;6.544;2023-06-22T13:44:29;100937.28;;;23.29;98.45
14117;BME280;7137;51.436;6.544;2023-06-22T13:47:32;100937.53;;;23.15;96.84
14117;BME280;7137;51.436;6.544;2023-06-22T13:50:34;100926.78;;;23.49;96.45
14117;BME280;7137;51.436;6.544;2023-06-22T13:53:37;100924.97;;;23.60;94.61
14117;BME280;7137;51.436;6.544;2023-06-22T13:56:38;100923.06;;;23.83;94.16
14117;BME280;7137;51.436;6.544;2023-06-22T13:59:40;100920.69;;;23.69;93.29
14117;BME280;7137;51.436;6.544;2023-06-22T14:02:41;100922.56;;;23.57;94.09
14117;BME280;7137;51.436;6.544;2023-06-22T14:05:43;100924.97;;;23.49;94.07
14117;BME280;7137;51.436;6.544;2023-06-22T14:08:46;100918.63;;;23.29;95.20
14117;BME280;7137;51.436;6.544;2023-06-22T14:11:47;100905.31;;;23.18;95.93
14117;BME280;7137;51.436;6.544;2023-06-22T14:14:49;100896.47;;;23.18;95.91
14117;BME280;7137;51.436;6.544;2023-06-22T14:17:50;100898.16;;;23.62;94.91
14117;BME280;7137;51.436;6.544;2023-06-22T14:20:52;100909.22;;;23.46;93.16
14117;BME280;7137;51.436;6.544;2023-06-22T14:23:55;100889.13;;;23.42;94.56
14117;BME280;7137;51.436;6.544;2023-06-22T14:26:57;100889.53;;;23.26;94.95
14117;BME280;7137;51.436;6.544;2023-06-22T14:29:59;100896.19;;;23.32;95.31
14117;BME280;7137;51.436;6.544;2023-06-22T14:33:01;100884.25;;;23.47;93.80
14117;BME280;7137;51.436;6.544;2023-06-22T14:36:03;100884.09;;;23.28;93.61
14117;BME280;7137;51.436;6.544;2023-06-22T14:39:06;100879.50;;;23.19;94.75
14117;BME280;7137;51.436;6.544;2023-06-22T14:42:08;100870.88;;;23.26;95.49
14117;BME280;7137;51.436;6.544;2023-06-22T14:45:10;100854.53;;;23.20;95.20
14117;BME280;7137;51.436;6.544;2023-06-22T14:48:12;100852.84;;;23.19;95.33
14117;BME280;7137;51.436;6.544;2023-06-22T14:51:13;100857.28;;;23.29;94.03
14117;BME280;7137;51.436;6.544;2023-06-22T14:54:16;100846.41;;;23.21;94.55
14117;BME280;7137;51.436;6.544;2023-06-22T14:57:18;100834.28;;;22.85;95.00
14117;BME280;7137;51.436;6.544;2023-06-22T15:00:20;100818.50;;;22.93;96.42
14117;BME280;7137;51.436;6.544;2023-06-22T15:03:22;100786.91;;;22.77;95.37
14117;BME280;7137;51.436;6.544;2023-06-22T15:06:27;100787.75;;;22.78;96.83
14117;BME280;7137;51.436;6.544;2023-06-22T15:09:30;100764.44;;;22.48;100.00
14117;BME280;7137;51.436;6.544;2023-06-22T15:12:33;100761.44;;;22.19;100.00
14117;BME280;7137;51.436;6.544;2023-06-22T15:15:35;100747.53;;;22.15;100.00
14117;BME280;7137;51.436;6.544;2023-06-22T15:18:36;100756.97;;;22.19;100.00
14117;BME280;7137;51.436;6.544;2023-06-22T15:21:38;100771.00;;;22.21;100.00
14117;BME280;7137;51.436;6.544;2023-06-22T15:24:41;100746.09;;;22.11;100.00
14117;BME280;7137;51.436;6.544;2023-06-22T15:27:43;100735.81;;;22.07;100.00
14117;BME280;7137;51.436;6.544;2023-06-22T15:30:45;100739.66;;;22.03;100.00
14117;BME280;7137;51.436;6.544;2023-06-22T15:33:47;100738.44;;;21.96;100.00
14117;BME280;7137;51.436;6.544;2023-06-22T15:36:48;100737.81;;;21.92;100.00
14117;BME280;7137;51.436;6.544;2023-06-22T15:39:51;100728.03;;;21.92;99.62
14117;BME280;7137;51.436;6.544;2023-06-22T15:42:53;100710.63;;;21.88;99.26
14117;BME280;7137;51.436;6.544;2023-06-22T15:45:55;100732.63;;;21.90;99.77
14117;BME280;7137;51.436;6.544;2023-06-22T15:48:56;100759.84;;;21.83;98.86
14117;BME280;7137;51.436;6.544;2023-06-22T15:51:58;100757.91;;;21.85;98.94
14117;BME280;7137;51.436;6.544;2023-06-22T15:55:00;100757.41;;;21.80;100.00
14117;BME280;7137;51.436;6.544;2023-06-22T15:58:02;100754.94;;;21.43;100.00
14117;BME280;7137;51.436;6.544;2023-06-22T16:01:04;100768.34;;;21.18;100.00
14117;BME280;7137;51.436;6.544;2023-06-22T16:04:06;100792.91;;;20.97;100.00
14117;BME280;7137;51.436;6.544;2023-06-22T16:07:07;100821.81;;;20.89;100.00